Impacts TAF Board
For situational awareness. Not to be used for flight planning purposes.
IDs:

KPIT - Pittsburgh Intl, PA, US

Issued at 0605 UTC 24 Jan 2019
Updated at 0623 UTC 24 Jan 2019
Potential Impact None Slight Moderate High
Time0551Z 24/07Z 24/08Z 24/09Z 24/10Z 24/11Z 24/12Z 24/13Z 24/14Z 24/15Z 24/16Z 24/17Z 24/18Z 24/19Z>>
Type OBS PRVL
  [TEMP]  
PRVL PRVL PRVL PRVL PRVL PRVL PRVL PRVL PRVL PRVL PRVL PRVL
VIS 1 1.5
  [1]  
1.5 2 2 2 2 2 2 2 >6 >6 >6 >6
CIG 2 6
  [2]  
6 3 3 3 6 6 6 6 12 12 12 12
Cover OVC OVC
  [OVC]  
OVC OVC OVC OVC OVC OVC OVC OVC OVC OVC OVC OVC
FltCat LIFR IFR
  [LIFR]  
IFR LIFR LIFR LIFR IFR IFR IFR IFR MVFR MVFR MVFR MVFR
WX -RA BR -RA BR
  [-RA BR]  
-RA BR -SN -SN -SN -SN -SN -SN -SN VCSH VCSH VCSH VCSH
WDir 160 180
[180]
180 320 320 320 320 320 320 320 300 300 300 300
WSpd 6 6
  [6]  
6 8 8 8 10 10 10 10 10 10 10 10
WGst -- --
  [--]  
-- -- -- -- 20 20 20 20 20 20 20 20
Raw TAF
KPIT 240605Z 2406/2512 18006KT 1 1/2SM -RA BR OVC006
  TEMPO 2406/2408 1SM -RA BR OVC002
  FM240900 32008KT 2SM -SN OVC003
  FM241200 32010G20KT 2SM -SN OVC006
  FM241600 30010G20KT P6SM VCSH OVC012
  FM242100 28010KT P6SM BKN020
  FM250500 26008KT P6SM VCSH BKN025


Raw METAR
KPIT 240551Z 16006KT 1SM R28R/2600V4000FT -RA BR OVC002 07/07 A2960 RMK AO2 SLP034 P0003 60026 T00720072 10072 20044 57041
KPIT 240451Z 17005KT 3/4SM R28R/P6000FT -RA BR OVC001 07/07 A2964 RMK AO2 SLP050 P0002 T00720072 400720006
KPIT 240351Z 16005KT 2SM -RA BR BKN002 OVC008 07/07 A2968 RMK AO2 SLP063 P0007 T00670067
KPIT 240339Z 16004KT 1 1/2SM -RA BR BKN001 OVC008 06/06 A2969 RMK AO2 P0006 T00610061

METAR Board
Radar Display
Forecast Discussion
For situational awareness. Not to be used for flight planning purposes.